Time;durP1;ratioP1;P1;durP2;ratioP2;P2;SDS_P1;SDS_P2;PMS_P1;PMS_P2;Temp;Humidity;BMP_temperature;BMP_pressure;BME280_temperature;BME280_humidity;BME280_pressure;Samples;Min_cycle;Max_cycle;Signal;HPM_P1;HPM_P2
2023/09/10 00:02:05;;;;;;;1.08;0.40;;;;;;;37.49;53.55;99923.22;7395161;19;20007;-52
2023/09/10 00:04:32;;;;;;;1.20;0.73;;;;;;;41.53;45.37;99916.09;7397213;19;20011;-51
2023/09/10 00:06:58;;;;;;;2.45;0.95;;;;;;;38.30;49.21;99907.53;7395629;19;20018;-51
2023/09/10 00:09:25;;;;;;;1.60;0.43;;;;;;;38.00;49.91;99915.09;7395685;19;20018;-51
2023/09/10 00:11:52;;;;;;;2.75;0.40;;;;;;;38.64;48.04;99911.69;7395991;19;20018;-52
2023/09/10 00:14:21;;;;;;;2.95;0.50;;;;;;;38.10;49.03;99909.66;7396161;19;20014;-52
2023/09/10 00:16:48;;;;;;;1.08;0.50;;;;;;;38.11;48.52;99916.97;7396305;19;20021;-52
2023/09/10 00:19:15;;;;;;;0.63;0.40;;;;;;;37.89;48.89;99919.03;7394694;19;20014;-51
2023/09/10 00:21:42;;;;;;;1.77;0.82;;;;;;;37.72;48.40;99917.63;7394102;19;20011;-51
2023/09/10 00:24:10;;;;;;;4.10;0.40;;;;;;;36.34;51.33;99916.03;7396726;19;20120;-51
2023/09/10 00:26:39;;;;;;;1.58;0.50;;;;;;;38.55;48.50;99907.00;7397920;19;20021;-52
2023/09/10 00:29:05;;;;;;;0.60;0.40;;;;;;;37.46;48.57;99907.09;7395358;19;20015;-51
2023/09/10 00:31:34;;;;;;;0.73;0.45;;;;;;;37.34;48.70;99904.41;7395539;19;20357;-51
2023/09/10 00:34:02;;;;;;;4.28;1.33;;;;;;;37.35;48.80;99903.03;7394162;19;20034;-52
2023/09/10 00:36:28;;;;;;;3.97;1.30;;;;;;;38.74;46.02;99893.13;7395129;19;20014;-51
2023/09/10 00:38:55;;;;;;;4.88;1.02;;;;;;;37.52;47.48;99890.66;7391947;19;20120;-52
2023/09/10 00:41:22;;;;;;;0.88;0.63;;;;;;;37.48;47.68;99890.50;7393182;19;20016;-52
2023/09/10 00:43:49;;;;;;;1.27;0.38;;;;;;;37.40;47.50;99890.19;7393270;19;20351;-52
2023/09/10 00:46:15;;;;;;;1.50;0.45;;;;;;;37.48;47.27;99881.78;7393492;19;20013;-51
2023/09/10 00:48:41;;;;;;;1.33;0.57;;;;;;;37.75;46.70;99892.28;7394354;19;20014;-51
2023/09/10 00:51:08;;;;;;;1.30;0.60;;;;;;;39.36;44.03;99884.34;7392979;19;20030;-51
2023/09/10 00:53:34;;;;;;;4.57;0.43;;;;;;;37.31;46.64;99884.66;7392834;19;20011;-51
2023/09/10 00:56:00;;;;;;;1.95;1.20;;;;;;;37.04;47.51;99885.72;7396101;19;20665;-51
2023/09/10 00:58:27;;;;;;;3.13;1.75;;;;;;;36.97;47.23;99881.09;7393839;19;20106;-51
2023/09/10 01:00:53;;;;;;;1.58;0.47;;;;;;;41.37;41.30;99880.63;7397677;19;20011;-52
2023/09/10 01:03:20;;;;;;;0.70;0.30;;;;;;;42.64;38.48;99880.47;7394087;19;20010;-51
2023/09/10 01:05:47;;;;;;;1.77;0.88;;;;;;;43.17;37.26;99875.53;7393901;19;20019;-51
2023/09/10 01:08:14;;;;;;;4.28;0.85;;;;;;;43.21;36.31;99878.56;7394532;19;20031;-51
2023/09/10 01:10:58;;;;;;;2.33;0.52;;;;;;;26.14;100.00;99897.84;7393971;19;20034;-51
2023/09/10 01:13:33;;;;;;;3.72;0.70;;;;;;;38.35;57.23;99877.19;7393887;19;20019;-51
2023/09/10 01:16:07;;;;;;;2.42;0.65;;;;;;;41.66;43.02;99872.53;7394268;19;20011;-51
2023/09/10 01:18:40;;;;;;;0.55;0.47;;;;;;;42.67;39.82;99869.50;7391613;19;20006;-51
2023/09/10 01:21:21;;;;;;;3.38;0.68;;;;;;;42.92;37.85;99869.28;7392603;19;20011;-51
2023/09/10 01:23:58;;;;;;;0.73;0.50;;;;;;;40.24;39.66;99871.03;7397232;19;20382;-51
2023/09/10 01:26:24;;;;;;;1.02;0.68;;;;;;;37.56;44.88;99863.91;7391479;19;20011;-51
2023/09/10 01:28:50;;;;;;;1.77;0.40;;;;;;;36.92;46.79;99877.28;7392351;19;20026;-51
2023/09/10 01:31:17;;;;;;;0.68;0.32;;;;;;;36.94;47.14;99871.56;7392855;19;20021;-51
2023/09/10 01:33:52;;;;;;;5.00;0.82;;;;;;;41.64;39.32;99864.44;7392474;19;20023;-51
2023/09/10 01:36:40;;;;;;;2.63;0.65;;;;;;;37.54;44.79;99872.53;7396735;19;20013;-51
2023/09/10 01:39:17;;;;;;;1.20;0.38;;;;;;;41.89;38.14;99868.66;7391705;19;20320;-52
2023/09/10 01:41:46;;;;;;;1.33;0.77;;;;;;;42.36;36.70;99861.59;7397072;19;20091;-51
2023/09/10 01:44:14;;;;;;;2.97;1.05;;;;;;;42.34;36.45;99865.22;7399401;19;20011;-52
2023/09/10 01:46:42;;;;;;;3.45;0.80;;;;;;;42.29;36.14;99857.78;7402323;19;20232;-51
2023/09/10 01:49:08;;;;;;;0.50;0.20;;;;;;;42.35;35.79;99854.97;7400918;19;20015;-51
2023/09/10 01:51:35;;;;;;;2.70;0.40;;;;;;;42.26;35.67;99859.19;7399405;19;20018;-51
2023/09/10 01:54:01;;;;;;;4.80;0.70;;;;;;;42.31;35.51;99854.16;7400200;19;20024;-52
2023/09/10 01:56:27;;;;;;;2.30;0.40;;;;;;;42.38;35.61;99856.50;7400068;19;20019;-51
2023/09/10 01:58:53;;;;;;;0.68;0.20;;;;;;;42.17;35.11;99857.56;7397621;19;20021;-51
2023/09/10 02:01:19;;;;;;;2.65;0.70;;;;;;;42.22;35.10;99859.13;7397183;19;20497;-52
2023/09/10 02:03:45;;;;;;;2.10;0.43;;;;;;;42.13;34.84;99851.59;7397482;19;20448;-52
2023/09/10 02:06:12;;;;;;;2.75;0.50;;;;;;;42.09;35.01;99861.06;7398330;19;20517;-52
2023/09/10 02:08:38;;;;;;;2.83;1.05;;;;;;;42.02;35.33;99855.75;7398773;19;20038;-51
2023/09/10 02:11:04;;;;;;;1.27;0.55;;;;;;;41.96;34.78;99846.84;7400218;19;20034;-52
2023/09/10 02:13:31;;;;;;;1.05;0.45;;;;;;;41.94;34.85;99852.66;7400363;19;20006;-52
2023/09/10 02:15:57;;;;;;;1.08;0.45;;;;;;;41.98;34.47;99856.41;7398396;19;20099;-52
2023/09/10 02:18:25;;;;;;;1.42;0.70;;;;;;;42.30;34.08;99847.56;7399160;19;20010;-52
2023/09/10 02:20:51;;;;;;;1.45;0.90;;;;;;;42.50;33.31;99847.97;7399010;19;20018;-52
2023/09/10 02:23:17;;;;;;;2.38;0.68;;;;;;;42.77;33.19;99846.28;7397454;19;20006;-52
2023/09/10 02:25:43;;;;;;;1.80;0.22;;;;;;;42.44;33.73;99858.81;7398993;19;20075;-52
2023/09/10 02:28:10;;;;;;;3.25;0.47;;;;;;;42.15;33.36;99849.47;7398616;19;20042;-52
2023/09/10 02:30:36;;;;;;;2.15;1.10;;;;;;;42.20;33.51;99845.19;7402429;19;20492;-52
2023/09/10 02:33:02;;;;;;;2.72;1.23;;;;;;;42.48;33.41;99850.13;7396980;19;20011;-51
2023/09/10 02:35:29;;;;;;;13.65;0.82;;;;;;;42.65;32.96;99846.78;7399006;19;20015;-52
2023/09/10 02:37:55;;;;;;;2.17;0.82;;;;;;;42.67;33.13;99849.75;7398261;19;20347;-52
2023/09/10 02:40:21;;;;;;;1.88;0.73;;;;;;;42.78;32.54;99844.81;7394344;19;20022;-52
2023/09/10 02:42:48;;;;;;;0.65;0.30;;;;;;;42.65;32.81;99846.78;7397759;19;20034;-51
2023/09/10 02:45:14;;;;;;;0.65;0.40;;;;;;;38.13;37.45;99850.13;7396443;19;20014;-52
2023/09/10 02:47:40;;;;;;;1.85;0.57;;;;;;;37.45;38.58;99859.13;7397532;19;20479;-52
2023/09/10 02:50:07;;;;;;;1.35;0.57;;;;;;;37.32;39.10;99860.75;7397452;19;20066;-52
2023/09/10 02:52:33;;;;;;;0.98;0.45;;;;;;;37.22;39.73;99855.28;7395980;19;20022;-51
2023/09/10 02:54:59;;;;;;;1.30;0.30;;;;;;;30.17;62.72;99857.81;7397977;19;20021;-52
2023/09/10 02:57:25;;;;;;;2.75;0.70;;;;;;;23.62;100.00;99871.16;7397578;19;20009;-52
2023/09/10 02:59:52;;;;;;;1.33;0.50;;;;;;;22.12;100.00;99872.63;7397482;19;20447;-52
2023/09/10 03:02:18;;;;;;;2.75;0.63;;;;;;;32.81;76.30;99853.34;7396565;19;20011;-52
2023/09/10 03:04:44;;;;;;;1.20;0.60;;;;;;;36.04;57.41;99853.03;7398241;19;20033;-51
2023/09/10 03:07:10;;;;;;;0.73;0.20;;;;;;;37.56;50.32;99846.47;7397763;19;20469;-52
2023/09/10 03:09:37;;;;;;;0.73;0.28;;;;;;;37.79;47.65;99843.75;7396067;19;20014;-52
2023/09/10 03:12:26;;;;;;;2.08;1.30;;;;;;;38.00;46.15;99848.19;7397336;19;20019;-51
2023/09/10 03:14:54;;;;;;;0.95;0.80;;;;;;;38.21;45.04;99844.59;7397135;19;20032;-52
2023/09/10 03:17:21;;;;;;;1.85;0.77;;;;;;;38.04;44.63;99845.44;7395251;19;20018;-52
2023/09/10 03:19:48;;;;;;;1.27;0.88;;;;;;;38.09;44.29;99832.53;7395612;19;20018;-51
2023/09/10 03:22:16;;;;;;;3.30;0.52;;;;;;;38.26;43.23;99840.47;7394866;19;20015;-52
2023/09/10 03:24:42;;;;;;;1.58;0.63;;;;;;;38.27;42.95;99838.31;7396911;19;20013;-51
2023/09/10 03:27:08;;;;;;;0.68;0.47;;;;;;;38.39;42.40;99836.56;7397168;19;20332;-52
2023/09/10 03:29:35;;;;;;;3.47;0.68;;;;;;;38.45;42.08;99839.69;7396628;19;20027;-52
2023/09/10 03:32:04;;;;;;;1.48;0.55;;;;;;;38.51;41.42;99842.81;7397798;19;20014;-51
2023/09/10 03:34:31;;;;;;;2.65;0.90;;;;;;;38.48;41.32;99850.00;7395251;19;20014;-52
2023/09/10 03:36:58;;;;;;;1.38;0.63;;;;;;;38.37;41.18;99851.06;7394604;19;20014;-52
2023/09/10 03:39:24;;;;;;;1.45;0.63;;;;;;;38.29;41.29;99850.00;7393646;19;20007;-51
2023/09/10 03:41:52;;;;;;;1.27;0.45;;;;;;;31.68;49.09;99850.69;7394416;19;20006;-52
2023/09/10 03:44:19;;;;;;;3.95;1.75;;;;;;;22.54;100.00;99857.03;7398210;19;20007;-52
2023/09/10 03:46:46;;;;;;;1.02;0.30;;;;;;;21.17;100.00;99864.09;7394116;19;20025;-52
2023/09/10 03:49:13;;;;;;;1.75;0.75;;;;;;;22.13;100.00;99867.72;7394843;19;20037;-51
2023/09/10 03:51:40;;;;;;;1.40;0.80;;;;;;;30.73;92.09;99852.31;7395345;19;20340;-52
2023/09/10 03:54:11;;;;;;;4.22;0.90;;;;;;;36.40;56.65;99851.72;7393966;19;20484;-52
2023/09/10 03:56:39;;;;;;;1.20;0.70;;;;;;;37.43;50.13;99856.13;7397863;19;20459;-52
2023/09/10 03:59:08;;;;;;;1.25;0.17;;;;;;;37.73;47.64;99848.56;7395419;19;20039;-52
2023/09/10 04:01:36;;;;;;;2.25;0.65;;;;;;;37.88;46.11;99841.94;7394041;19;20025;-52
2023/09/10 04:04:03;;;;;;;4.03;1.42;;;;;;;37.75;45.61;99837.03;7393581;19;20011;-52
2023/09/10 04:06:29;;;;;;;0.73;0.50;;;;;;;37.92;44.89;99836.28;7395066;19;20015;-51
2023/09/10 04:08:55;;;;;;;1.00;0.38;;;;;;;38.13;44.22;99834.84;7399123;19;20022;-51
2023/09/10 04:11:21;;;;;;;0.93;0.40;;;;;;;38.49;43.07;99839.81;7395273;19;20474;-52
2023/09/10 04:13:48;;;;;;;1.83;0.63;;;;;;;38.63;42.40;99837.41;7395457;19;20014;-51
2023/09/10 04:16:14;;;;;;;1.30;0.60;;;;;;;38.60;41.62;99838.75;7393988;19;20494;-52
2023/09/10 04:18:41;;;;;;;0.82;0.55;;;;;;;38.64;41.65;99826.50;7392094;19;20002;-51
2023/09/10 04:21:07;;;;;;;0.55;0.40;;;;;;;38.59;41.41;99830.72;7399445;19;20096;-51
2023/09/10 04:23:33;;;;;;;2.17;0.32;;;;;;;38.41;40.95;99839.53;7394612;19;20014;-51
2023/09/10 04:25:59;;;;;;;1.92;0.80;;;;;;;38.58;41.10;99829.19;7393220;19;20018;-51
2023/09/10 04:28:25;;;;;;;1.50;0.70;;;;;;;38.52;40.53;99831.91;7393599;19;20019;-51
2023/09/10 04:30:51;;;;;;;14.35;0.95;;;;;;;38.23;41.06;99830.13;7397554;19;20084;-51
2023/09/10 04:33:18;;;;;;;9.07;0.47;;;;;;;38.30;40.80;99820.22;7392772;19;20395;-52
2023/09/10 04:35:53;;;;;;;3.70;0.75;;;;;;;38.41;40.32;99827.16;7392726;19;20022;-51
2023/09/10 04:38:20;;;;;;;0.63;0.38;;;;;;;38.35;40.20;99824.03;7392911;19;20007;-52
2023/09/10 04:40:47;;;;;;;0.75;0.45;;;;;;;38.22;40.39;99822.84;7397240;19;20019;-52
2023/09/10 04:43:13;;;;;;;1.77;0.73;;;;;;;38.39;40.08;99813.28;7392470;19;20018;-52
2023/09/10 04:45:39;;;;;;;4.88;1.08;;;;;;;38.19;39.88;99824.16;7393705;19;20014;-52
2023/09/10 04:48:05;;;;;;;1.58;0.50;;;;;;;38.17;40.11;99824.09;7391445;19;20036;-52
2023/09/10 04:50:32;;;;;;;0.60;0.50;;;;;;;38.34;39.59;99826.19;7394378;19;20011;-51
2023/09/10 04:53:00;;;;;;;0.95;0.47;;;;;;;38.38;39.38;99817.59;7393524;19;20017;-52
2023/09/10 04:55:26;;;;;;;0.73;0.30;;;;;;;38.58;39.37;99823.38;7394151;19;20052;-52
2023/09/10 04:57:53;;;;;;;1.02;0.47;;;;;;;38.66;38.58;99812.75;7396381;19;20011;-52
2023/09/10 05:00:19;;;;;;;3.03;0.35;;;;;;;38.76;38.42;99820.38;7393192;19;20017;-52
2023/09/10 05:02:45;;;;;;;1.90;0.45;;;;;;;38.93;38.56;99828.22;7394240;19;20015;-51
2023/09/10 05:05:11;;;;;;;3.13;1.08;;;;;;;39.14;38.06;99827.50;7392448;19;20023;-52
2023/09/10 05:07:39;;;;;;;3.15;0.90;;;;;;;39.17;37.81;99829.06;7391582;19;20018;-52
2023/09/10 05:10:06;;;;;;;2.47;0.55;;;;;;;41.40;35.69;99829.53;7392227;19;20010;-52
2023/09/10 05:12:32;;;;;;;2.40;0.47;;;;;;;43.48;33.09;99821.78;7392036;19;20010;-52
2023/09/10 05:14:59;;;;;;;0.75;0.57;;;;;;;44.19;31.83;99824.19;7397094;19;20034;-52
2023/09/10 05:17:25;;;;;;;1.45;0.80;;;;;;;44.31;31.21;99827.25;7399212;19;20014;-52
2023/09/10 05:19:51;;;;;;;1.67;0.95;;;;;;;28.65;54.55;99839.56;7397839;19;20021;-52
2023/09/10 05:22:17;;;;;;;2.90;0.85;;;;;;;24.19;100.00;99838.19;7399143;19;20360;-52
2023/09/10 05:24:43;;;;;;;2.17;0.70;;;;;;;39.33;47.03;99818.66;7398736;19;20559;-51
2023/09/10 05:27:09;;;;;;;2.65;0.82;;;;;;;41.95;37.23;99824.88;7403369;19;20022;-51
2023/09/10 05:29:35;;;;;;;0.45;0.45;;;;;;;33.48;44.54;99831.22;7401090;19;20006;-51
2023/09/10 05:32:02;;;;;;;1.95;0.40;;;;;;;22.55;100.00;99847.19;7399629;19;20018;-51
2023/09/10 05:34:28;;;;;;;0.47;0.20;;;;;;;20.61;100.00;99856.75;7401079;19;20459;-51
2023/09/10 05:36:55;;;;;;;0.85;0.70;;;;;;;20.16;100.00;99851.16;7399832;19;20018;-52
2023/09/10 05:39:21;;;;;;;4.43;1.20;;;;;;;33.47;70.31;99847.03;7397264;19;20006;-52
2023/09/10 05:41:47;;;;;;;1.33;0.40;;;;;;;36.10;54.10;99841.69;7398724;19;20014;-52
2023/09/10 05:44:14;;;;;;;1.65;0.65;;;;;;;34.03;52.28;99844.41;7398205;19;20010;-52
2023/09/10 05:46:41;;;;;;;0.57;0.28;;;;;;;37.29;48.55;99841.00;7399177;19;20014;-52
2023/09/10 05:49:07;;;;;;;0.45;0.45;;;;;;;27.43;76.82;99854.34;7399304;19;20423;-52
2023/09/10 05:51:33;;;;;;;0.38;0.20;;;;;;;27.01;100.00;99858.09;7398472;19;20064;-51
2023/09/10 05:53:59;;;;;;;2.28;1.05;;;;;;;21.90;100.00;99867.53;7400820;19;20070;-52
2023/09/10 05:56:27;;;;;;;1.70;0.35;;;;;;;20.19;100.00;99863.44;7399062;19;20015;-52
2023/09/10 05:58:54;;;;;;;1.48;0.80;;;;;;;19.73;100.00;99869.66;7397307;19;20018;-52
2023/09/10 06:01:20;;;;;;;1.35;0.40;;;;;;;20.72;100.00;99865.03;7396989;19;20033;-52
2023/09/10 06:03:47;;;;;;;0.98;0.55;;;;;;;26.15;100.00;99859.38;7398515;19;20011;-52
2023/09/10 06:06:13;;;;;;;1.70;0.40;;;;;;;21.79;100.00;99867.78;7398342;19;20017;-52
2023/09/10 06:08:39;;;;;;;2.40;0.73;;;;;;;21.77;100.00;99881.75;7398301;19;20014;-52
2023/09/10 06:11:05;;;;;;;1.85;0.60;;;;;;;19.53;100.00;99880.22;7396820;19;20018;-52
2023/09/10 06:13:31;;;;;;;1.13;0.35;;;;;;;19.28;100.00;99878.78;7396907;19;20006;-51
2023/09/10 06:15:58;;;;;;;0.57;0.55;;;;;;;19.22;100.00;99874.50;7396331;19;20482;-52
2023/09/10 06:18:24;;;;;;;2.35;1.08;;;;;;;19.22;100.00;99869.63;7399899;19;20011;-52
2023/09/10 06:20:50;;;;;;;0.88;0.40;;;;;;;19.18;100.00;99863.53;7397241;19;20070;-52
2023/09/10 06:23:16;;;;;;;5.93;1.02;;;;;;;19.21;100.00;99867.34;7399191;19;20018;-52
2023/09/10 06:25:43;;;;;;;0.38;0.38;;;;;;;34.93;82.55;99851.25;7398450;19;20018;-53
2023/09/10 06:28:10;;;;;;;1.30;0.50;;;;;;;42.32;44.31;99843.94;7400421;19;20023;-52
2023/09/10 06:30:36;;;;;;;0.95;0.45;;;;;;;44.04;38.29;99840.19;7402277;19;20017;-52
2023/09/10 06:33:02;;;;;;;1.00;0.40;;;;;;;44.40;36.90;99843.53;7398789;19;20034;-52
2023/09/10 06:35:30;;;;;;;1.48;0.57;;;;;;;45.12;34.65;99839.81;7396963;19;20014;-53
2023/09/10 06:37:56;;;;;;;1.98;0.95;;;;;;;45.59;33.75;99847.53;7402125;19;20466;-52
2023/09/10 06:40:23;;;;;;;0.90;0.40;;;;;;;46.07;32.70;99844.09;7396237;19;20459;-52
2023/09/10 06:42:50;;;;;;;0.40;0.30;;;;;;;46.38;31.70;99842.75;7397673;19;20014;-53
2023/09/10 06:45:31;;;;;;;0.65;0.32;;;;;;;46.77;30.79;99840.59;7397194;19;20007;-53
2023/09/10 06:47:57;;;;;;;0.77;0.77;;;;;;;46.80;30.37;99839.13;7401792;19;20014;-53
2023/09/10 06:50:23;;;;;;;1.15;0.65;;;;;;;34.26;48.34;99855.00;7400626;19;20015;-52
2023/09/10 06:52:49;;;;;;;2.65;0.73;;;;;;;31.18;73.25;99863.31;7402151;19;20766;-52
2023/09/10 06:55:16;;;;;;;1.63;0.77;;;;;;;29.48;89.18;99861.53;7401140;19;20014;-53
2023/09/10 06:57:42;;;;;;;1.08;0.82;;;;;;;28.69;95.67;99857.06;7401902;19;20014;-52
2023/09/10 07:00:09;;;;;;;0.85;0.60;;;;;;;29.69;91.81;99861.59;7397744;19;20010;-53
2023/09/10 07:02:35;;;;;;;1.23;0.57;;;;;;;28.24;100.00;99861.50;7397493;19;20348;-53
2023/09/10 07:05:02;;;;;;;2.08;1.00;;;;;;;29.76;93.31;99852.09;7397116;19;20015;-52
2023/09/10 07:07:28;;;;;;;2.70;0.77;;;;;;;30.06;91.69;99861.34;7399731;19;20017;-52
2023/09/10 07:09:54;;;;;;;1.65;0.55;;;;;;;30.14;92.17;99856.16;7396882;19;20089;-52
2023/09/10 07:12:20;;;;;;;0.35;0.35;;;;;;;30.88;86.95;99851.94;7400573;19;20010;-52
2023/09/10 07:14:49;;;;;;;1.75;0.60;;;;;;;30.10;92.03;99862.41;7397470;19;20014;-52
2023/09/10 07:17:15;;;;;;;3.80;0.77;;;;;;;29.95;93.29;99854.16;7398736;19;20014;-52
2023/09/10 07:19:41;;;;;;;0.70;0.30;;;;;;;35.47;66.02;99852.47;7395304;19;20558;-52
2023/09/10 07:22:07;;;;;;;8.13;0.85;;;;;;;31.29;82.50;99856.09;7398530;19;20080;-52
2023/09/10 07:24:33;;;;;;;1.20;0.32;;;;;;;30.03;91.97;99862.56;7400497;19;20770;-52
2023/09/10 07:27:01;;;;;;;2.85;0.60;;;;;;;30.01;93.09;99860.31;7401581;19;20514;-52
2023/09/10 07:29:28;;;;;;;1.75;0.40;;;;;;;29.88;95.90;99870.19;7397513;19;20011;-52
2023/09/10 07:31:54;;;;;;;1.40;0.50;;;;;;;30.02;95.72;99866.81;7395022;19;20011;-52
2023/09/10 07:34:21;;;;;;;0.90;0.68;;;;;;;30.24;95.16;99866.22;7395241;19;20018;-52
2023/09/10 07:36:47;;;;;;;2.63;0.40;;;;;;;28.99;100.00;99868.69;7395938;19;20023;-52
2023/09/10 07:39:14;;;;;;;1.58;0.68;;;;;;;28.81;100.00;99866.56;7394147;19;20021;-52
2023/09/10 07:41:40;;;;;;;1.05;0.68;;;;;;;28.32;100.00;99871.47;7400098;19;20482;-52
2023/09/10 07:44:06;;;;;;;1.50;0.22;;;;;;;28.35;100.00;99867.38;7395968;19;20007;-52
2023/09/10 07:46:33;;;;;;;0.60;0.40;;;;;;;28.43;100.00;99870.88;7396787;19;20470;-53
2023/09/10 07:49:00;;;;;;;1.00;0.47;;;;;;;28.78;100.00;99868.53;7394039;19;20014;-53
2023/09/10 07:51:26;;;;;;;1.58;0.82;;;;;;;28.64;100.00;99867.47;7398875;19;20017;-52
2023/09/10 07:53:52;;;;;;;3.97;0.73;;;;;;;29.66;100.00;99862.09;7395606;19;20007;-52
2023/09/10 07:56:18;;;;;;;1.27;0.35;;;;;;;28.43;100.00;99867.25;7400434;19;20070;-53
2023/09/10 07:58:44;;;;;;;1.48;0.98;;;;;;;29.32;100.00;99860.38;7396279;19;20347;-53
2023/09/10 08:01:10;;;;;;;1.92;0.90;;;;;;;30.27;100.00;99861.38;7399873;19;20966;-53
2023/09/10 08:03:38;;;;;;;3.45;1.00;;;;;;;30.60;100.00;99853.63;7395224;19;20045;-53
2023/09/10 08:06:04;;;;;;;1.30;0.47;;;;;;;30.69;100.00;99853.56;7395538;19;20032;-52
2023/09/10 08:08:30;;;;;;;1.77;1.17;;;;;;;30.86;100.00;99852.56;7394593;19;20007;-53
2023/09/10 08:10:57;;;;;;;6.40;0.75;;;;;;;31.38;99.90;99850.22;7393661;19;20015;-52
2023/09/10 08:13:23;;;;;;;0.60;0.32;;;;;;;31.48;99.54;99849.38;7393866;19;20007;-52
2023/09/10 08:15:49;;;;;;;3.10;0.77;;;;;;;30.67;100.00;99856.28;7395570;19;20042;-53
2023/09/10 08:18:16;;;;;;;4.22;0.88;;;;;;;29.82;100.00;99843.91;7397935;19;20565;-52
2023/09/10 08:20:43;;;;;;;3.60;0.80;;;;;;;29.67;100.00;99844.25;7394731;19;20047;-52
2023/09/10 08:23:09;;;;;;;0.82;0.35;;;;;;;29.28;100.00;99842.88;7393310;19;20434;-52
2023/09/10 08:25:36;;;;;;;2.15;0.93;;;;;;;29.32;100.00;99843.16;7394555;19;20348;-52
2023/09/10 08:28:02;;;;;;;0.88;0.50;;;;;;;30.13;100.00;99846.03;7394774;19;20018;-52
2023/09/10 08:30:30;;;;;;;6.47;0.95;;;;;;;29.49;100.00;99851.56;7398461;19;20169;-52
2023/09/10 08:32:56;;;;;;;2.05;0.88;;;;;;;30.01;100.00;99865.31;7393897;19;20098;-52
2023/09/10 08:35:23;;;;;;;2.28;0.95;;;;;;;30.01;100.00;99868.16;7395705;19;20086;-53
2023/09/10 08:37:49;;;;;;;1.67;0.80;;;;;;;29.80;100.00;99863.88;7394876;19;20069;-53
2023/09/10 08:40:16;;;;;;;4.63;1.08;;;;;;;29.83;100.00;99850.41;7393247;19;20014;-53
2023/09/10 08:42:55;;;;;;;1.00;0.60;;;;;;;30.35;100.00;99836.84;7393403;19;20344;-53
2023/09/10 08:45:22;;;;;;;2.15;1.95;;;;;;;30.14;100.00;99853.28;7393496;19;20010;-53
2023/09/10 08:47:53;;;;;;;2.38;1.02;;;;;;;29.82;100.00;99855.41;7392226;19;20014;-53
2023/09/10 08:50:20;;;;;;;1.48;0.82;;;;;;;29.71;100.00;99855.28;7393497;19;20014;-53
2023/09/10 08:52:48;;;;;;;5.22;1.08;;;;;;;29.95;100.00;99857.03;7393264;19;20474;-53
2023/09/10 08:55:15;;;;;;;2.92;0.68;;;;;;;29.92;100.00;99859.00;7396372;19;20014;-53
2023/09/10 08:57:42;;;;;;;3.30;0.63;;;;;;;29.91;100.00;99851.72;7394511;19;20418;-53
2023/09/10 09:00:12;;;;;;;5.82;1.00;;;;;;;29.95;100.00;99860.63;7394692;19;20037;-53
2023/09/10 09:02:40;;;;;;;1.60;1.13;;;;;;;31.35;100.00;99854.34;7394586;19;20015;-53
2023/09/10 09:05:07;;;;;;;4.45;1.15;;;;;;;31.52;100.00;99859.03;7393677;19;20046;-53
2023/09/10 09:07:43;;;;;;;2.85;0.85;;;;;;;31.25;100.00;99861.59;7393704;19;20010;-53
2023/09/10 09:10:33;;;;;;;1.25;0.63;;;;;;;32.38;100.00;99857.94;7396563;19;20031;-53
2023/09/10 09:13:05;;;;;;;2.70;1.05;;;;;;;32.72;100.00;99857.16;7393566;19;20023;-53
2023/09/10 09:15:32;;;;;;;1.55;0.65;;;;;;;32.87;100.00;99853.72;7393652;19;20489;-53
2023/09/10 09:18:00;;;;;;;1.20;0.65;;;;;;;32.79;100.00;99849.63;7392820;19;20015;-53
2023/09/10 09:20:29;;;;;;;3.25;0.50;;;;;;;32.78;100.00;99839.44;7390774;19;20022;-53
2023/09/10 09:23:03;;;;;;;2.83;0.63;;;;;;;32.75;100.00;99838.56;7396476;19;20015;-53
2023/09/10 09:25:29;;;;;;;2.33;0.55;;;;;;;32.94;100.00;99836.75;7393167;19;20048;-52
2023/09/10 09:27:56;;;;;;;3.10;1.08;;;;;;;31.52;100.00;99835.25;7393276;19;20006;-53
2023/09/10 09:30:23;;;;;;;4.65;1.38;;;;;;;31.68;100.00;99842.78;7397024;19;20022;-52
2023/09/10 09:32:49;;;;;;;2.80;0.75;;;;;;;30.94;100.00;99841.56;7395554;19;20007;-52
2023/09/10 09:35:15;;;;;;;2.47;1.48;;;;;;;30.93;100.00;99842.94;7393350;19;20068;-53
2023/09/10 09:37:41;;;;;;;2.95;0.68;;;;;;;32.07;100.00;99835.19;7392717;19;20019;-53
2023/09/10 09:40:11;;;;;;;5.10;1.42;;;;;;;31.24;100.00;99839.91;7391728;19;20078;-53
2023/09/10 09:42:38;;;;;;;4.00;1.23;;;;;;;32.19;100.00;99829.41;7395012;19;20007;-53
2023/09/10 09:45:05;;;;;;;6.47;1.98;;;;;;;30.90;100.00;99835.56;7392324;19;20019;-53
2023/09/10 09:47:32;;;;;;;5.38;1.10;;;;;;;30.80;100.00;99837.72;7391730;19;20022;-53
2023/09/10 09:49:58;;;;;;;4.45;1.83;;;;;;;30.83;100.00;99830.75;7392982;19;20022;-53
2023/09/10 09:52:24;;;;;;;5.13;0.32;;;;;;;32.26;100.00;99839.91;7394941;19;20357;-53
2023/09/10 09:54:51;;;;;;;3.53;0.60;;;;;;;32.30;100.00;99837.28;7394148;19;20007;-52
2023/09/10 09:57:17;;;;;;;3.97;1.70;;;;;;;32.87;100.00;99827.00;7391717;19;20015;-53
2023/09/10 09:59:44;;;;;;;1.73;0.85;;;;;;;33.26;100.00;99829.97;7393462;19;20087;-53
2023/09/10 10:02:15;;;;;;;1.90;0.82;;;;;;;32.92;100.00;99827.97;7395359;19;20007;-53
2023/09/10 10:04:42;;;;;;;1.83;0.68;;;;;;;32.62;100.00;99824.81;7399542;19;20100;-53
2023/09/10 10:07:09;;;;;;;4.05;1.55;;;;;;;32.43;100.00;99822.22;7399148;19;20014;-53
2023/09/10 10:09:37;;;;;;;11.27;1.13;;;;;;;32.44;100.00;99826.63;7400166;19;20015;-53
2023/09/10 10:12:04;;;;;;;0.98;0.70;;;;;;;32.41;100.00;99835.75;7398804;19;20018;-53
2023/09/10 10:14:35;;;;;;;3.72;0.70;;;;;;;32.21;100.00;99829.53;7401803;19;20024;-53
2023/09/10 10:17:03;;;;;;;5.78;1.73;;;;;;;32.44;100.00;99825.84;7397968;19;20017;-53
2023/09/10 10:19:31;;;;;;;2.28;0.95;;;;;;;32.45;100.00;99830.22;7396519;19;20015;-53
2023/09/10 10:21:58;;;;;;;8.50;1.75;;;;;;;32.09;100.00;99825.91;7398979;19;20030;-53
2023/09/10 10:24:24;;;;;;;6.82;1.45;;;;;;;32.22;100.00;99824.50;7398460;19;20151;-53
2023/09/10 10:26:52;;;;;;;3.13;1.02;;;;;;;32.30;100.00;99828.63;7401081;19;20018;-53
2023/09/10 10:29:19;;;;;;;4.65;0.90;;;;;;;33.65;100.00;99810.53;7399549;19;20010;-53
2023/09/10 10:32:00;;;;;;;1.48;0.52;;;;;;;34.25;100.00;99807.25;7397679;19;20003;-53
2023/09/10 10:34:35;;;;;;;9.40;0.82;;;;;;;34.18;100.00;99805.41;7399960;19;20021;-53
2023/09/10 10:37:24;;;;;;;4.45;0.90;;;;;;;34.14;100.00;99797.28;7399088;19;20471;-53
2023/09/10 10:40:11;;;;;;;1.95;0.30;;;;;;;34.48;100.00;99797.56;7402491;19;20015;-53
2023/09/10 10:42:50;;;;;;;1.63;0.68;;;;;;;34.90;100.00;99788.13;7397956;19;20018;-53
2023/09/10 10:45:18;;;;;;;4.32;0.80;;;;;;;34.89;100.00;99783.75;7398155;19;20044;-53
2023/09/10 10:47:47;;;;;;;2.45;0.85;;;;;;;34.98;100.00;99777.69;7397553;19;20084;-52
2023/09/10 10:50:21;;;;;;;3.08;0.88;;;;;;;35.18;97.53;99786.63;7398022;19;20023;-52
2023/09/10 10:53:04;;;;;;;2.42;0.98;;;;;;;35.00;98.29;99777.06;7397922;19;20042;-52
2023/09/10 10:55:33;;;;;;;3.17;0.85;;;;;;;35.22;98.73;99778.13;7400920;19;20021;-53
2023/09/10 10:58:00;;;;;;;5.25;1.15;;;;;;;35.28;98.18;99783.50;7397082;19;20006;-52
2023/09/10 11:00:28;;;;;;;5.35;1.60;;;;;;;34.65;100.00;99773.88;7399261;19;20014;-53
2023/09/10 11:03:14;;;;;;;3.05;0.40;;;;;;;34.70;100.00;99770.53;7396930;19;20070;-52
2023/09/10 11:05:52;;;;;;;3.80;0.80;;;;;;;34.06;100.00;99765.06;7397982;19;20022;-52
2023/09/10 11:08:30;;;;;;;5.88;1.58;;;;;;;33.54;100.00;99765.13;7397897;19;20365;-52
2023/09/10 11:10:58;;;;;;;2.40;0.88;;;;;;;33.48;100.00;99750.34;7395646;19;20510;-52
2023/09/10 11:13:24;;;;;;;2.20;0.88;;;;;;;33.66;100.00;99748.44;7399939;19;20017;-52
2023/09/10 11:16:05;;;;;;;7.82;1.77;;;;;;;33.80;100.00;99757.13;7397326;19;20010;-52
2023/09/10 11:18:35;;;;;;;10.27;1.52;;;;;;;33.97;100.00;99760.22;7396318;19;20006;-52
2023/09/10 11:21:06;;;;;;;4.30;0.93;;;;;;;34.31;100.00;99773.59;7396543;19;20462;-52
2023/09/10 11:23:34;;;;;;;1.98;0.55;;;;;;;34.34;100.00;99757.84;7395600;19;20359;-51
2023/09/10 11:26:12;;;;;;;3.85;0.77;;;;;;;35.22;100.00;99754.97;7400791;19;20385;-51
2023/09/10 11:28:49;;;;;;;14.25;1.08;;;;;;;35.50;100.00;99750.53;7396795;19;20014;-51
2023/09/10 11:31:33;;;;;;;2.45;0.90;;;;;;;36.60;98.93;99739.47;7401608;19;20010;-50
2023/09/10 11:34:18;;;;;;;2.80;0.43;;;;;;;36.67;97.37;99729.56;7396293;19;20034;-50